sensor_id;sensor_type;location;lat;lon;timestamp;temperature;humidity
4293;DHT22;2160;51.172;6.808;2023-02-07T05:02:49;3.90;99.90
4293;DHT22;2160;51.172;6.808;2023-02-07T05:05:17;4.10;99.90
4293;DHT22;2160;51.172;6.808;2023-02-07T05:07:44;3.80;99.90
4293;DHT22;2160;51.172;6.808;2023-02-07T05:10:11;3.80;99.90
4293;DHT22;2160;51.172;6.808;2023-02-07T05:12:38;3.90;99.90
4293;DHT22;2160;51.172;6.808;2023-02-07T05:15:05;3.90;99.90
4293;DHT22;2160;51.172;6.808;2023-02-07T05:17:32;3.90;99.90
4293;DHT22;2160;51.172;6.808;2023-02-07T05:20:01;4.00;99.90
4293;DHT22;2160;51.172;6.808;2023-02-07T05:22:28;3.90;99.90
4293;DHT22;2160;51.172;6.808;2023-02-07T05:24:55;3.90;99.90
4293;DHT22;2160;51.172;6.808;2023-02-07T05:27:22;3.90;99.90
4293;DHT22;2160;51.172;6.808;2023-02-07T05:29:49;3.90;99.90
4293;DHT22;2160;51.172;6.808;2023-02-07T05:32:16;3.90;99.90
4293;DHT22;2160;51.172;6.808;2023-02-07T05:35:02;3.80;99.90
4293;DHT22;2160;51.172;6.808;2023-02-07T05:37:29;3.80;99.90
4293;DHT22;2160;51.172;6.808;2023-02-07T05:39:56;3.80;99.90
4293;DHT22;2160;51.172;6.808;2023-02-07T05:42:23;3.90;99.90
4293;DHT22;2160;51.172;6.808;2023-02-07T05:44:50;4.00;99.90
4293;DHT22;2160;51.172;6.808;2023-02-07T05:47:18;4.00;99.90
4293;DHT22;2160;51.172;6.808;2023-02-07T05:49:45;4.00;99.90
4293;DHT22;2160;51.172;6.808;2023-02-07T05:52:13;4.00;99.90
4293;DHT22;2160;51.172;6.808;2023-02-07T05:54:40;4.00;99.90
4293;DHT22;2160;51.172;6.808;2023-02-07T05:57:07;4.00;99.90
4293;DHT22;2160;51.172;6.808;2023-02-07T05:59:34;3.90;99.90
4293;DHT22;2160;51.172;6.808;2023-02-07T06:02:02;4.00;99.90
4293;DHT22;2160;51.172;6.808;2023-02-07T06:04:29;4.00;99.90
4293;DHT22;2160;51.172;6.808;2023-02-07T06:06:56;4.00;99.90
4293;DHT22;2160;51.172;6.808;2023-02-07T06:09:24;4.00;99.90
4293;DHT22;2160;51.172;6.808;2023-02-07T06:11:52;4.10;99.90
4293;DHT22;2160;51.172;6.808;2023-02-07T06:14:25;4.20;99.90
4293;DHT22;2160;51.172;6.808;2023-02-07T06:16:52;4.00;99.90
4293;DHT22;2160;51.172;6.808;2023-02-07T06:19:19;4.10;99.90
4293;DHT22;2160;51.172;6.808;2023-02-07T06:21:46;4.10;99.90
4293;DHT22;2160;51.172;6.808;2023-02-07T06:24:13;4.10;99.90
4293;DHT22;2160;51.172;6.808;2023-02-07T06:26:42;4.20;99.90
4293;DHT22;2160;51.172;6.808;2023-02-07T06:29:11;4.20;99.90
4293;DHT22;2160;51.172;6.808;2023-02-07T06:31:38;4.50;99.90
4293;DHT22;2160;51.172;6.808;2023-02-07T06:34:05;4.40;99.90
4293;DHT22;2160;51.172;6.808;2023-02-07T06:36:32;4.30;99.90
4293;DHT22;2160;51.172;6.808;2023-02-07T06:38:59;4.20;99.90
4293;DHT22;2160;51.172;6.808;2023-02-07T06:41:26;4.10;99.90
4293;DHT22;2160;51.172;6.808;2023-02-07T06:43:55;4.20;99.90
4293;DHT22;2160;51.172;6.808;2023-02-07T06:46:22;4.20;99.90
4293;DHT22;2160;51.172;6.808;2023-02-07T06:48:49;4.20;99.90
4293;DHT22;2160;51.172;6.808;2023-02-07T06:51:16;4.20;99.90
4293;DHT22;2160;51.172;6.808;2023-02-07T06:53:43;4.20;99.90
4293;DHT22;2160;51.172;6.808;2023-02-07T06:56:09;4.00;99.90
4293;DHT22;2160;51.172;6.808;2023-02-07T06:58:36;4.00;99.90
4293;DHT22;2160;51.172;6.808;2023-02-07T07:01:05;4.10;99.90
4293;DHT22;2160;51.172;6.808;2023-02-07T07:03:32;4.00;99.90
4293;DHT22;2160;51.172;6.808;2023-02-07T07:05:59;3.90;99.90
4293;DHT22;2160;51.172;6.808;2023-02-07T07:08:26;3.90;99.90
4293;DHT22;2160;51.172;6.808;2023-02-07T07:10:54;3.90;99.90
4293;DHT22;2160;51.172;6.808;2023-02-07T07:13:22;3.80;99.90
4293;DHT22;2160;51.172;6.808;2023-02-07T07:15:49;3.80;99.90
4293;DHT22;2160;51.172;6.808;2023-02-07T07:18:17;3.90;99.90
4293;DHT22;2160;51.172;6.808;2023-02-07T07:20:44;3.80;99.90
4293;DHT22;2160;51.172;6.808;2023-02-07T07:23:11;3.70;99.90
4293;DHT22;2160;51.172;6.808;2023-02-07T07:25:38;3.80;99.90
4293;DHT22;2160;51.172;6.808;2023-02-07T07:28:05;3.80;99.90
4293;DHT22;2160;51.172;6.808;2023-02-07T07:30:32;3.80;99.90
4293;DHT22;2160;51.172;6.808;2023-02-07T07:32:59;3.80;99.90
4293;DHT22;2160;51.172;6.808;2023-02-07T07:35:28;3.60;99.90
4293;DHT22;2160;51.172;6.808;2023-02-07T07:37:55;3.70;99.90
4293;DHT22;2160;51.172;6.808;2023-02-07T07:40:22;3.60;99.90
4293;DHT22;2160;51.172;6.808;2023-02-07T07:42:49;3.70;99.90
4293;DHT22;2160;51.172;6.808;2023-02-07T07:45:27;3.90;99.90
4293;DHT22;2160;51.172;6.808;2023-02-07T07:47:54;3.70;99.90
4293;DHT22;2160;51.172;6.808;2023-02-07T07:50:21;3.70;99.90
4293;DHT22;2160;51.172;6.808;2023-02-07T07:52:50;4.00;99.90
4293;DHT22;2160;51.172;6.808;2023-02-07T07:55:17;3.80;99.90
4293;DHT22;2160;51.172;6.808;2023-02-07T07:57:44;3.90;99.90
4293;DHT22;2160;51.172;6.808;2023-02-07T08:00:12;3.80;99.90
4293;DHT22;2160;51.172;6.808;2023-02-07T08:02:40;3.80;99.90
4293;DHT22;2160;51.172;6.808;2023-02-07T08:05:08;3.90;99.90
4293;DHT22;2160;51.172;6.808;2023-02-07T08:07:36;3.90;99.90
4293;DHT22;2160;51.172;6.808;2023-02-07T08:10:05;4.00;99.90
4293;DHT22;2160;51.172;6.808;2023-02-07T08:12:32;4.10;99.90
4293;DHT22;2160;51.172;6.808;2023-02-07T08:14:59;4.20;99.90
4293;DHT22;2160;51.172;6.808;2023-02-07T08:17:26;4.20;99.90
4293;DHT22;2160;51.172;6.808;2023-02-07T08:19:53;4.10;99.90
4293;DHT22;2160;51.172;6.808;2023-02-07T08:22:20;4.10;99.90
4293;DHT22;2160;51.172;6.808;2023-02-07T08:24:47;4.10;99.90
4293;DHT22;2160;51.172;6.808;2023-02-07T08:27:16;4.10;99.90
4293;DHT22;2160;51.172;6.808;2023-02-07T08:29:43;4.10;99.90
4293;DHT22;2160;51.172;6.808;2023-02-07T08:32:10;4.10;99.90
4293;DHT22;2160;51.172;6.808;2023-02-07T08:34:38;4.10;99.90
4293;DHT22;2160;51.172;6.808;2023-02-07T08:37:06;4.10;99.90
4293;DHT22;2160;51.172;6.808;2023-02-07T08:39:34;4.20;99.90
4293;DHT22;2160;51.172;6.808;2023-02-07T08:42:01;4.30;99.90
4293;DHT22;2160;51.172;6.808;2023-02-07T08:44:31;4.30;99.90
4293;DHT22;2160;51.172;6.808;2023-02-07T08:46:58;4.30;99.90
4293;DHT22;2160;51.172;6.808;2023-02-07T08:49:25;4.50;99.90
4293;DHT22;2160;51.172;6.808;2023-02-07T08:51:52;4.50;99.90
4293;DHT22;2160;51.172;6.808;2023-02-07T08:54:19;4.60;99.90
4293;DHT22;2160;51.172;6.808;2023-02-07T08:56:46;4.60;99.90
4293;DHT22;2160;51.172;6.808;2023-02-07T08:59:13;4.60;99.90
4293;DHT22;2160;51.172;6.808;2023-02-07T09:01:42;4.90;99.90
4293;DHT22;2160;51.172;6.808;2023-02-07T09:04:09;4.90;99.90
4293;DHT22;2160;51.172;6.808;2023-02-07T09:06:36;4.80;99.90
4293;DHT22;2160;51.172;6.808;2023-02-07T09:09:03;4.80;99.90
4293;DHT22;2160;51.172;6.808;2023-02-07T09:11:30;4.90;99.90
4293;DHT22;2160;51.172;6.808;2023-02-07T09:13:57;4.90;99.90
4293;DHT22;2160;51.172;6.808;2023-02-07T09:16:25;5.10;99.90
4293;DHT22;2160;51.172;6.808;2023-02-07T09:18:53;5.10;99.90
4293;DHT22;2160;51.172;6.808;2023-02-07T09:21:21;5.10;99.90
4293;DHT22;2160;51.172;6.808;2023-02-07T09:23:48;5.20;99.90
4293;DHT22;2160;51.172;6.808;2023-02-07T09:26:17;5.10;99.90
4293;DHT22;2160;51.172;6.808;2023-02-07T09:28:45;5.20;99.90
4293;DHT22;2160;51.172;6.808;2023-02-07T09:31:15;5.10;99.90
4293;DHT22;2160;51.172;6.808;2023-02-07T09:33:42;5.20;99.90
4293;DHT22;2160;51.172;6.808;2023-02-07T09:36:18;5.40;99.90
4293;DHT22;2160;51.172;6.808;2023-02-07T09:38:46;5.50;99.90
4293;DHT22;2160;51.172;6.808;2023-02-07T09:41:23;5.60;99.90
4293;DHT22;2160;51.172;6.808;2023-02-07T09:44:08;5.70;99.90
4293;DHT22;2160;51.172;6.808;2023-02-07T09:46:42;5.60;99.90
4293;DHT22;2160;51.172;6.808;2023-02-07T09:49:28;5.70;99.90
4293;DHT22;2160;51.172;6.808;2023-02-07T09:51:59;5.70;99.90
4293;DHT22;2160;51.172;6.808;2023-02-07T09:54:32;5.70;99.90
4293;DHT22;2160;51.172;6.808;2023-02-07T09:57:05;5.70;99.90
4293;DHT22;2160;51.172;6.808;2023-02-07T09:59:42;5.70;99.90
4293;DHT22;2160;51.172;6.808;2023-02-07T10:02:19;5.90;99.90
4293;DHT22;2160;51.172;6.808;2023-02-07T10:04:49;5.80;99.90
4293;DHT22;2160;51.172;6.808;2023-02-07T10:07:18;5.90;99.90
4293;DHT22;2160;51.172;6.808;2023-02-07T10:09:46;5.90;99.90
4293;DHT22;2160;51.172;6.808;2023-02-07T10:12:32;6.00;99.90
4293;DHT22;2160;51.172;6.808;2023-02-07T10:15:19;6.00;99.90
4293;DHT22;2160;51.172;6.808;2023-02-07T10:18:01;6.10;99.90
4293;DHT22;2160;51.172;6.808;2023-02-07T10:20:36;6.20;99.90
4293;DHT22;2160;51.172;6.808;2023-02-07T10:23:14;6.20;99.90
4293;DHT22;2160;51.172;6.808;2023-02-07T10:25:53;6.40;99.90
4293;DHT22;2160;51.172;6.808;2023-02-07T10:31:15;6.60;99.90
4293;DHT22;2160;51.172;6.808;2023-02-07T10:33:47;6.70;99.90
4293;DHT22;2160;51.172;6.808;2023-02-07T10:36:16;6.80;99.90
4293;DHT22;2160;51.172;6.808;2023-02-07T10:38:50;6.80;99.90
4293;DHT22;2160;51.172;6.808;2023-02-07T10:41:24;6.80;99.90
4293;DHT22;2160;51.172;6.808;2023-02-07T10:43:55;6.80;99.90
4293;DHT22;2160;51.172;6.808;2023-02-07T10:46:23;7.00;99.90
4293;DHT22;2160;51.172;6.808;2023-02-07T10:48:51;7.00;99.90
4293;DHT22;2160;51.172;6.808;2023-02-07T10:51:23;7.00;99.90
4293;DHT22;2160;51.172;6.808;2023-02-07T10:54:09;7.10;99.90
4293;DHT22;2160;51.172;6.808;2023-02-07T10:56:41;7.00;99.90
4293;DHT22;2160;51.172;6.808;2023-02-07T10:59:29;7.20;99.90
4293;DHT22;2160;51.172;6.808;2023-02-07T11:01:57;7.50;99.90
4293;DHT22;2160;51.172;6.808;2023-02-07T11:04:35;7.60;99.90
4293;DHT22;2160;51.172;6.808;2023-02-07T11:07:05;7.60;99.90
4293;DHT22;2160;51.172;6.808;2023-02-07T11:09:37;7.50;99.90
4293;DHT22;2160;51.172;6.808;2023-02-07T11:12:13;7.50;99.90
4293;DHT22;2160;51.172;6.808;2023-02-07T11:14:58;7.70;99.90
4293;DHT22;2160;51.172;6.808;2023-02-07T11:17:28;7.70;99.90
4293;DHT22;2160;51.172;6.808;2023-02-07T11:19:56;7.70;99.90
4293;DHT22;2160;51.172;6.808;2023-02-07T11:22:28;7.80;99.90
4293;DHT22;2160;51.172;6.808;2023-02-07T11:25:02;7.90;99.90
4293;DHT22;2160;51.172;6.808;2023-02-07T11:27:36;7.70;99.90
4293;DHT22;2160;51.172;6.808;2023-02-07T11:30:07;7.80;99.90
4293;DHT22;2160;51.172;6.808;2023-02-07T11:32:35;7.90;99.50
4293;DHT22;2160;51.172;6.808;2023-02-07T11:35:05;8.00;99.90
4293;DHT22;2160;51.172;6.808;2023-02-07T11:37:35;8.10;99.90
4293;DHT22;2160;51.172;6.808;2023-02-07T11:40:21;8.10;99.20
4293;DHT22;2160;51.172;6.808;2023-02-07T11:42:55;7.80;98.30
4293;DHT22;2160;51.172;6.808;2023-02-07T11:45:23;7.90;98.30
4293;DHT22;2160;51.172;6.808;2023-02-07T11:47:54;7.90;96.90
4293;DHT22;2160;51.172;6.808;2023-02-07T11:50:25;7.80;97.70
4293;DHT22;2160;51.172;6.808;2023-02-07T11:52:54;7.80;98.80
4293;DHT22;2160;51.172;6.808;2023-02-07T11:55:29;8.00;99.90
4293;DHT22;2160;51.172;6.808;2023-02-07T11:57:57;8.10;99.00
4293;DHT22;2160;51.172;6.808;2023-02-07T12:00:26;8.20;97.60
4293;DHT22;2160;51.172;6.808;2023-02-07T12:03:00;8.20;97.70
4293;DHT22;2160;51.172;6.808;2023-02-07T12:05:32;8.30;94.40
4293;DHT22;2160;51.172;6.808;2023-02-07T12:08:03;8.40;95.60
4293;DHT22;2160;51.172;6.808;2023-02-07T12:10:39;8.70;95.70
4293;DHT22;2160;51.172;6.808;2023-02-07T12:13:13;8.40;97.60
4293;DHT22;2160;51.172;6.808;2023-02-07T12:15:47;8.60;96.50
4293;DHT22;2160;51.172;6.808;2023-02-07T12:18:20;8.80;95.20
4293;DHT22;2160;51.172;6.808;2023-02-07T12:20:57;9.00;93.80
4293;DHT22;2160;51.172;6.808;2023-02-07T12:23:36;8.90;95.10
4293;DHT22;2160;51.172;6.808;2023-02-07T12:26:14;8.90;94.40
4293;DHT22;2160;51.172;6.808;2023-02-07T12:28:48;8.90;91.60
4293;DHT22;2160;51.172;6.808;2023-02-07T12:31:24;8.20;88.70
4293;DHT22;2160;51.172;6.808;2023-02-07T12:33:58;8.20;93.30
4293;DHT22;2160;51.172;6.808;2023-02-07T12:36:33;8.50;94.10
4293;DHT22;2160;51.172;6.808;2023-02-07T12:39:09;8.90;95.90
4293;DHT22;2160;51.172;6.808;2023-02-07T12:41:52;9.10;93.50
4293;DHT22;2160;51.172;6.808;2023-02-07T12:44:24;9.20;83.60
4293;DHT22;2160;51.172;6.808;2023-02-07T12:46:58;9.40;83.80
4293;DHT22;2160;51.172;6.808;2023-02-07T12:49:50;9.40;88.90
4293;DHT22;2160;51.172;6.808;2023-02-07T12:52:29;9.50;86.10
4293;DHT22;2160;51.172;6.808;2023-02-07T12:55:11;9.60;87.00
4293;DHT22;2160;51.172;6.808;2023-02-07T12:57:55;9.60;82.80
4293;DHT22;2160;51.172;6.808;2023-02-07T13:00:30;9.60;79.00
4293;DHT22;2160;51.172;6.808;2023-02-07T13:03:11;9.50;78.20
4293;DHT22;2160;51.172;6.808;2023-02-07T13:05:54;9.40;74.80
4293;DHT22;2160;51.172;6.808;2023-02-07T13:08:31;9.20;77.00
4293;DHT22;2160;51.172;6.808;2023-02-07T13:11:07;9.40;74.60
4293;DHT22;2160;51.172;6.808;2023-02-07T13:13:49;9.60;74.70
4293;DHT22;2160;51.172;6.808;2023-02-07T13:16:26;9.50;70.80
4293;DHT22;2160;51.172;6.808;2023-02-07T13:19:02;9.60;72.40
4293;DHT22;2160;51.172;6.808;2023-02-07T13:21:38;9.70;72.60
4293;DHT22;2160;51.172;6.808;2023-02-07T13:24:17;9.60;68.70
4293;DHT22;2160;51.172;6.808;2023-02-07T13:26:51;9.70;73.70
4293;DHT22;2160;51.172;6.808;2023-02-07T13:29:26;9.90;67.30
4293;DHT22;2160;51.172;6.808;2023-02-07T13:31:59;9.80;65.70
4293;DHT22;2160;51.172;6.808;2023-02-07T13:34:31;9.90;65.20
4293;DHT22;2160;51.172;6.808;2023-02-07T13:37:00;9.80;68.00
4293;DHT22;2160;51.172;6.808;2023-02-07T13:39:41;9.80;69.40
4293;DHT22;2160;51.172;6.808;2023-02-07T13:42:20;9.70;68.50
4293;DHT22;2160;51.172;6.808;2023-02-07T13:44:55;9.90;68.50
4293;DHT22;2160;51.172;6.808;2023-02-07T13:50:28;10.30;67.20
4293;DHT22;2160;51.172;6.808;2023-02-07T13:53:04;10.20;68.10
4293;DHT22;2160;51.172;6.808;2023-02-07T13:55:38;10.30;67.70
4293;DHT22;2160;51.172;6.808;2023-02-07T13:58:50;10.20;66.80
4293;DHT22;2160;51.172;6.808;2023-02-07T14:01:46;9.70;67.40
4293;DHT22;2160;51.172;6.808;2023-02-07T14:04:15;9.80;62.60
4293;DHT22;2160;51.172;6.808;2023-02-07T14:06:45;9.80;62.40
4293;DHT22;2160;51.172;6.808;2023-02-07T14:09:26;10.10;62.30
4293;DHT22;2160;51.172;6.808;2023-02-07T14:12:03;9.80;62.70
4293;DHT22;2160;51.172;6.808;2023-02-07T14:14:32;10.00;62.30
4293;DHT22;2160;51.172;6.808;2023-02-07T14:17:05;10.40;62.40
4293;DHT22;2160;51.172;6.808;2023-02-07T14:19:53;10.60;61.60
4293;DHT22;2160;51.172;6.808;2023-02-07T14:22:23;10.70;61.30
4293;DHT22;2160;51.172;6.808;2023-02-07T14:25:16;10.50;62.00
4293;DHT22;2160;51.172;6.808;2023-02-07T14:31:06;10.50;58.90
4293;DHT22;2160;51.172;6.808;2023-02-07T14:34:08;10.30;57.90
4293;DHT22;2160;51.172;6.808;2023-02-07T14:36:36;10.20;58.00
4293;DHT22;2160;51.172;6.808;2023-02-07T14:41:50;10.00;61.10
4293;DHT22;2160;51.172;6.808;2023-02-07T14:44:23;10.10;59.70
4293;DHT22;2160;51.172;6.808;2023-02-07T14:46:53;10.00;58.60
4293;DHT22;2160;51.172;6.808;2023-02-07T14:49:30;9.80;66.60
4293;DHT22;2160;51.172;6.808;2023-02-07T14:51:59;9.80;59.20
4293;DHT22;2160;51.172;6.808;2023-02-07T14:54:35;9.80;58.00
4293;DHT22;2160;51.172;6.808;2023-02-07T14:57:18;10.00;59.20
4293;DHT22;2160;51.172;6.808;2023-02-07T14:59:53;10.00;59.90
4293;DHT22;2160;51.172;6.808;2023-02-07T15:02:29;9.90;61.50
4293;DHT22;2160;51.172;6.808;2023-02-07T15:04:58;9.80;60.70
4293;DHT22;2160;51.172;6.808;2023-02-07T15:07:35;9.70;61.00
4293;DHT22;2160;51.172;6.808;2023-02-07T15:10:13;9.50;58.00
4293;DHT22;2160;51.172;6.808;2023-02-07T15:12:43;9.80;59.30
4293;DHT22;2160;51.172;6.808;2023-02-07T15:15:18;9.90;58.60
4293;DHT22;2160;51.172;6.808;2023-02-07T15:17:47;10.00;60.00
4293;DHT22;2160;51.172;6.808;2023-02-07T15:20:22;9.90;61.70
4293;DHT22;2160;51.172;6.808;2023-02-07T15:22:53;9.90;61.20
4293;DHT22;2160;51.172;6.808;2023-02-07T15:25:21;9.70;57.40
4293;DHT22;2160;51.172;6.808;2023-02-07T15:28:00;9.70;58.10
4293;DHT22;2160;51.172;6.808;2023-02-07T15:30:28;9.70;59.40
4293;DHT22;2160;51.172;6.808;2023-02-07T15:32:58;9.70;58.10
4293;DHT22;2160;51.172;6.808;2023-02-07T15:35:37;9.70;59.70
4293;DHT22;2160;51.172;6.808;2023-02-07T15:38:16;9.70;61.30
4293;DHT22;2160;51.172;6.808;2023-02-07T15:40:43;9.50;57.90
4293;DHT22;2160;51.172;6.808;2023-02-07T15:43:24;9.60;57.30
4293;DHT22;2160;51.172;6.808;2023-02-07T15:46:06;9.70;58.80
4293;DHT22;2160;51.172;6.808;2023-02-07T15:48:46;9.70;63.20
4293;DHT22;2160;51.172;6.808;2023-02-07T15:51:15;9.80;62.40
4293;DHT22;2160;51.172;6.808;2023-02-07T15:53:46;10.00;62.10
4293;DHT22;2160;51.172;6.808;2023-02-07T15:56:16;9.80;68.70
4293;DHT22;2160;51.172;6.808;2023-02-07T15:58:43;9.80;67.80
4293;DHT22;2160;51.172;6.808;2023-02-07T16:01:15;9.70;71.10
4293;DHT22;2160;51.172;6.808;2023-02-07T16:03:46;9.70;65.40
4293;DHT22;2160;51.172;6.808;2023-02-07T16:06:18;9.50;67.50
4293;DHT22;2160;51.172;6.808;2023-02-07T16:08:47;9.50;68.70
4293;DHT22;2160;51.172;6.808;2023-02-07T16:11:36;9.50;61.10
4293;DHT22;2160;51.172;6.808;2023-02-07T16:14:15;9.40;72.80
4293;DHT22;2160;51.172;6.808;2023-02-07T16:16:47;9.40;74.60
4293;DHT22;2160;51.172;6.808;2023-02-07T16:19:16;9.40;77.00
4293;DHT22;2160;51.172;6.808;2023-02-07T16:21:49;9.30;77.20
4293;DHT22;2160;51.172;6.808;2023-02-07T16:24:19;9.20;77.80
4293;DHT22;2160;51.172;6.808;2023-02-07T16:26:49;9.20;79.20
4293;DHT22;2160;51.172;6.808;2023-02-07T16:29:19;9.20;79.60
4293;DHT22;2160;51.172;6.808;2023-02-07T16:31:50;9.00;79.40
4293;DHT22;2160;51.172;6.808;2023-02-07T16:34:19;9.00;81.10
4293;DHT22;2160;51.172;6.808;2023-02-07T16:36:49;8.80;80.20
4293;DHT22;2160;51.172;6.808;2023-02-07T16:39:17;8.80;81.00
4293;DHT22;2160;51.172;6.808;2023-02-07T16:41:46;8.70;81.90
4293;DHT22;2160;51.172;6.808;2023-02-07T16:44:17;8.70;82.20
4293;DHT22;2160;51.172;6.808;2023-02-07T16:46:44;8.70;83.90
4293;DHT22;2160;51.172;6.808;2023-02-07T16:49:14;8.60;83.40
4293;DHT22;2160;51.172;6.808;2023-02-07T16:51:41;8.50;83.20
4293;DHT22;2160;51.172;6.808;2023-02-07T16:54:10;8.40;82.50
4293;DHT22;2160;51.172;6.808;2023-02-07T16:56:37;8.60;83.50
4293;DHT22;2160;51.172;6.808;2023-02-07T16:59:05;8.40;83.90
4293;DHT22;2160;51.172;6.808;2023-02-07T17:01:35;8.50;82.10
4293;DHT22;2160;51.172;6.808;2023-02-07T17:04:03;8.50;80.70
4293;DHT22;2160;51.172;6.808;2023-02-07T17:06:30;8.30;80.10
4293;DHT22;2160;51.172;6.808;2023-02-07T17:08:57;8.30;80.30
4293;DHT22;2160;51.172;6.808;2023-02-07T17:11:29;8.30;82.20
4293;DHT22;2160;51.172;6.808;2023-02-07T17:13:59;8.10;82.90
4293;DHT22;2160;51.172;6.808;2023-02-07T17:16:27;8.10;84.30
4293;DHT22;2160;51.172;6.808;2023-02-07T17:18:53;7.90;87.30
4293;DHT22;2160;51.172;6.808;2023-02-07T17:21:21;7.90;85.80
4293;DHT22;2160;51.172;6.808;2023-02-07T17:24:00;7.60;88.30
4293;DHT22;2160;51.172;6.808;2023-02-07T17:26:49;7.50;88.70
4293;DHT22;2160;51.172;6.808;2023-02-07T17:29:41;7.20;89.50
4293;DHT22;2160;51.172;6.808;2023-02-07T17:32:19;7.20;90.60
4293;DHT22;2160;51.172;6.808;2023-02-07T17:35:00;7.20;90.10
4293;DHT22;2160;51.172;6.808;2023-02-07T17:37:31;7.20;90.60
4293;DHT22;2160;51.172;6.808;2023-02-07T17:40:01;7.10;92.40
4293;DHT22;2160;51.172;6.808;2023-02-07T17:42:29;6.90;93.40
4293;DHT22;2160;51.172;6.808;2023-02-07T17:44:56;6.90;93.50
4293;DHT22;2160;51.172;6.808;2023-02-07T17:47:23;6.80;94.10
4293;DHT22;2160;51.172;6.808;2023-02-07T17:49:50;6.60;95.00
4293;DHT22;2160;51.172;6.808;2023-02-07T17:52:17;6.40;95.20
4293;DHT22;2160;51.172;6.808;2023-02-07T17:54:45;6.50;96.40
4293;DHT22;2160;51.172;6.808;2023-02-07T17:57:12;6.50;96.10
4293;DHT22;2160;51.172;6.808;2023-02-07T17:59:40;6.40;95.90
4293;DHT22;2160;51.172;6.808;2023-02-07T18:02:10;6.30;96.10
4293;DHT22;2160;51.172;6.808;2023-02-07T18:04:37;6.30;97.20
4293;DHT22;2160;51.172;6.808;2023-02-07T18:07:05;6.40;97.40
4293;DHT22;2160;51.172;6.808;2023-02-07T18:09:32;6.20;97.30
4293;DHT22;2160;51.172;6.808;2023-02-07T18:12:00;6.10;98.30
4293;DHT22;2160;51.172;6.808;2023-02-07T18:14:28;6.10;98.20
4293;DHT22;2160;51.172;6.808;2023-02-07T18:16:57;6.20;97.40
4293;DHT22;2160;51.172;6.808;2023-02-07T18:19:24;6.10;98.20
4293;DHT22;2160;51.172;6.808;2023-02-07T18:21:51;6.10;99.00
4293;DHT22;2160;51.172;6.808;2023-02-07T18:24:21;6.00;99.00
4293;DHT22;2160;51.172;6.808;2023-02-07T18:26:48;5.90;99.90
4293;DHT22;2160;51.172;6.808;2023-02-07T18:29:15;5.70;99.90
4293;DHT22;2160;51.172;6.808;2023-02-07T18:31:45;6.00;99.60
4293;DHT22;2160;51.172;6.808;2023-02-07T18:34:17;6.10;98.70
4293;DHT22;2160;51.172;6.808;2023-02-07T18:36:47;6.10;98.50
4293;DHT22;2160;51.172;6.808;2023-02-07T18:39:16;6.00;98.90
4293;DHT22;2160;51.172;6.808;2023-02-07T18:41:46;5.80;99.90
4293;DHT22;2160;51.172;6.808;2023-02-07T18:44:14;5.70;99.90
4293;DHT22;2160;51.172;6.808;2023-02-07T18:46:41;5.60;99.90
4293;DHT22;2160;51.172;6.808;2023-02-07T18:49:12;5.40;99.90
4293;DHT22;2160;51.172;6.808;2023-02-07T18:51:43;5.30;99.90
4293;DHT22;2160;51.172;6.808;2023-02-07T18:54:15;5.30;99.90
4293;DHT22;2160;51.172;6.808;2023-02-07T18:56:42;5.10;99.90
4293;DHT22;2160;51.172;6.808;2023-02-07T18:59:24;5.20;99.90
4293;DHT22;2160;51.172;6.808;2023-02-07T19:01:54;5.20;99.90
4293;DHT22;2160;51.172;6.808;2023-02-07T19:04:22;5.40;99.90
4293;DHT22;2160;51.172;6.808;2023-02-07T19:06:50;5.40;99.90
4293;DHT22;2160;51.172;6.808;2023-02-07T19:09:18;5.40;99.90
4293;DHT22;2160;51.172;6.808;2023-02-07T19:11:49;5.50;99.90
4293;DHT22;2160;51.172;6.808;2023-02-07T19:14:18;5.30;99.90
4293;DHT22;2160;51.172;6.808;2023-02-07T19:16:58;5.30;99.90
4293;DHT22;2160;51.172;6.808;2023-02-07T19:20:01;5.20;99.90
4293;DHT22;2160;51.172;6.808;2023-02-07T19:22:43;5.20;99.90
4293;DHT22;2160;51.172;6.808;2023-02-07T19:25:31;5.10;99.90
4293;DHT22;2160;51.172;6.808;2023-02-07T19:28:49;5.10;99.90
4293;DHT22;2160;51.172;6.808;2023-02-07T19:32:07;5.10;99.90
4293;DHT22;2160;51.172;6.808;2023-02-07T19:38:36;5.00;99.90
4293;DHT22;2160;51.172;6.808;2023-02-07T19:42:09;4.90;99.90
4293;DHT22;2160;51.172;6.808;2023-02-07T19:44:58;5.00;99.90
4293;DHT22;2160;51.172;6.808;2023-02-07T19:47:33;5.00;99.90
4293;DHT22;2160;51.172;6.808;2023-02-07T19:50:45;4.90;99.90
4293;DHT22;2160;51.172;6.808;2023-02-07T19:53:17;4.90;99.90
4293;DHT22;2160;51.172;6.808;2023-02-07T19:55:44;5.00;99.90
4293;DHT22;2160;51.172;6.808;2023-02-07T19:58:13;5.10;99.90
4293;DHT22;2160;51.172;6.808;2023-02-07T20:00:40;5.00;99.90
4293;DHT22;2160;51.172;6.808;2023-02-07T20:03:10;5.00;99.90
4293;DHT22;2160;51.172;6.808;2023-02-07T20:05:42;5.10;99.90
4293;DHT22;2160;51.172;6.808;2023-02-07T20:08:09;4.80;99.90
4293;DHT22;2160;51.172;6.808;2023-02-07T20:10:41;5.00;99.90
4293;DHT22;2160;51.172;6.808;2023-02-07T20:13:08;4.90;99.90
4293;DHT22;2160;51.172;6.808;2023-02-07T20:15:38;4.80;99.90
4293;DHT22;2160;51.172;6.808;2023-02-07T20:18:06;4.90;99.90
4293;DHT22;2160;51.172;6.808;2023-02-07T20:20:33;4.60;99.90
4293;DHT22;2160;51.172;6.808;2023-02-07T20:23:00;4.50;99.90
4293;DHT22;2160;51.172;6.808;2023-02-07T20:25:27;4.60;99.90
4293;DHT22;2160;51.172;6.808;2023-02-07T20:27:59;4.50;99.90
4293;DHT22;2160;51.172;6.808;2023-02-07T20:30:26;4.40;99.90
4293;DHT22;2160;51.172;6.808;2023-02-07T20:32:54;4.60;99.90
4293;DHT22;2160;51.172;6.808;2023-02-07T20:35:21;4.60;99.90
4293;DHT22;2160;51.172;6.808;2023-02-07T20:37:49;4.60;99.90
4293;DHT22;2160;51.172;6.808;2023-02-07T20:40:17;4.70;99.90
4293;DHT22;2160;51.172;6.808;2023-02-07T20:42:47;4.80;99.90
4293;DHT22;2160;51.172;6.808;2023-02-07T20:45:16;4.90;99.90
4293;DHT22;2160;51.172;6.808;2023-02-07T20:47:43;4.70;99.90
4293;DHT22;2160;51.172;6.808;2023-02-07T20:50:13;4.70;99.90
4293;DHT22;2160;51.172;6.808;2023-02-07T20:52:42;4.50;99.90
4293;DHT22;2160;51.172;6.808;2023-02-07T20:55:09;4.50;99.90
4293;DHT22;2160;51.172;6.808;2023-02-07T20:57:37;4.20;99.90
4293;DHT22;2160;51.172;6.808;2023-02-07T21:00:06;4.60;99.90
4293;DHT22;2160;51.172;6.808;2023-02-07T21:02:35;4.40;99.90
4293;DHT22;2160;51.172;6.808;2023-02-07T21:05:02;4.40;99.90
4293;DHT22;2160;51.172;6.808;2023-02-07T21:07:29;4.40;99.90
4293;DHT22;2160;51.172;6.808;2023-02-07T21:09:58;4.50;99.90
4293;DHT22;2160;51.172;6.808;2023-02-07T21:12:25;4.50;99.90
4293;DHT22;2160;51.172;6.808;2023-02-07T21:14:52;4.50;99.90
4293;DHT22;2160;51.172;6.808;2023-02-07T21:17:20;4.60;99.90
4293;DHT22;2160;51.172;6.808;2023-02-07T21:19:48;4.60;99.90
4293;DHT22;2160;51.172;6.808;2023-02-07T21:22:15;4.70;99.90
4293;DHT22;2160;51.172;6.808;2023-02-07T21:24:42;4.50;99.90
4293;DHT22;2160;51.172;6.808;2023-02-07T21:27:09;4.50;99.90
4293;DHT22;2160;51.172;6.808;2023-02-07T21:29:36;4.40;99.90
4293;DHT22;2160;51.172;6.808;2023-02-07T21:32:03;4.40;99.90
4293;DHT22;2160;51.172;6.808;2023-02-07T21:34:30;4.40;99.90
4293;DHT22;2160;51.172;6.808;2023-02-07T21:36:58;4.70;99.90
4293;DHT22;2160;51.172;6.808;2023-02-07T21:39:25;4.40;99.90
4293;DHT22;2160;51.172;6.808;2023-02-07T21:41:53;4.50;99.90
4293;DHT22;2160;51.172;6.808;2023-02-07T21:44:20;4.30;99.90
4293;DHT22;2160;51.172;6.808;2023-02-07T21:46:47;4.20;99.90
4293;DHT22;2160;51.172;6.808;2023-02-07T21:49:15;4.20;99.90
4293;DHT22;2160;51.172;6.808;2023-02-07T21:51:46;4.30;99.90
4293;DHT22;2160;51.172;6.808;2023-02-07T21:54:15;4.20;99.90
4293;DHT22;2160;51.172;6.808;2023-02-07T21:56:42;4.20;99.90
4293;DHT22;2160;51.172;6.808;2023-02-07T21:59:11;4.20;99.90
4293;DHT22;2160;51.172;6.808;2023-02-07T22:01:39;4.20;99.90
4293;DHT22;2160;51.172;6.808;2023-02-07T22:04:07;4.20;99.90